Time;durP1;ratioP1;P1;durP2;ratioP2;P2;SDS_P1;SDS_P2;PMS_P1;PMS_P2;Temp;Humidity;BMP_temperature;BMP_pressure;BME280_temperature;BME280_humidity;BME280_pressure;Samples;Min_cycle;Max_cycle;Signal;HPM_P1;HPM_P2
2022/05/13 00:01:51;;;;;;;2.70;1.45;;;10.90;99.90;;;;;;4174781;28;20044;-84
2022/05/13 00:03:54;;;;;;;1.48;1.25;;;10.70;99.90;;;;;;4178862;28;20060;-84
2022/05/13 00:05:56;;;;;;;4.55;1.60;;;10.60;99.90;;;;;;4163016;28;20053;-85
2022/05/13 00:07:58;;;;;;;2.22;2.13;;;10.60;99.90;;;;;;4172628;28;20053;-84
2022/05/13 00:10:05;;;;;;;1.73;1.20;;;10.70;99.90;;;;;;4196704;28;20052;-84
2022/05/13 00:12:08;;;;;;;5.68;1.20;;;10.70;99.90;;;;;;4179258;28;20783;-86
2022/05/13 00:14:10;;;;;;;;;;;10.70;99.90;;;;;;4195957;28;20056;-84
2022/05/13 00:16:12;;;;;;;1.50;1.30;;;10.70;99.90;;;;;;4195872;28;20427;-85
2022/05/13 00:18:16;;;;;;;;;;;10.60;99.90;;;;;;4197260;28;20416;-84
2022/05/13 00:20:19;;;;;;;1.27;1.17;;;10.60;99.90;;;;;;4189517;28;19928;-84
2022/05/13 00:22:22;;;;;;;1.85;1.73;;;10.50;99.90;;;;;;4163801;28;20051;-84
2022/05/13 00:24:25;;;;;;;1.83;1.20;;;10.20;99.90;;;;;;4194209;28;20580;-85
2022/05/13 00:26:28;;;;;;;3.40;1.48;;;10.30;99.90;;;;;;4180397;28;20132;-84
2022/05/13 00:28:32;;;;;;;2.15;1.40;;;10.20;99.90;;;;;;4197340;28;20044;-84
2022/05/13 00:30:38;;;;;;;1.73;1.58;;;10.30;99.90;;;;;;4197163;28;20503;-84
2022/05/13 00:32:41;;;;;;;2.08;1.40;;;10.30;99.90;;;;;;4180121;28;20060;-84
2022/05/13 00:34:43;;;;;;;1.30;1.20;;;10.40;99.90;;;;;;4180413;28;20560;-84
2022/05/13 00:36:47;;;;;;;5.70;1.95;;;10.30;99.90;;;;;;4179499;28;20124;-84
2022/05/13 00:38:49;;;;;;;2.15;1.73;;;10.30;99.90;;;;;;4164298;28;20045;-84
2022/05/13 00:40:51;;;;;;;3.10;1.55;;;10.20;99.90;;;;;;4179139;28;20414;-85
2022/05/13 00:42:59;;;;;;;1.77;1.67;;;10.20;99.90;;;;;;4187705;28;20059;-84
2022/05/13 00:45:01;;;;;;;2.63;1.80;;;10.10;99.90;;;;;;4186101;28;20064;-84
2022/05/13 00:47:05;;;;;;;2.67;1.80;;;10.20;99.90;;;;;;4178552;28;20049;-84
2022/05/13 00:49:11;;;;;;;2.92;1.80;;;10.10;99.90;;;;;;4178255;28;20053;-84
2022/05/13 00:51:39;;;;;;;2.40;1.92;;;10.00;99.90;;;;;;4179572;28;20037;-84
2022/05/13 00:53:44;;;;;;;3.90;1.65;;;10.10;99.90;;;;;;4145266;28;20054;-84
2022/05/13 00:55:47;;;;;;;3.70;1.80;;;10.00;99.90;;;;;;4173065;28;20049;-84
2022/05/13 00:57:51;;;;;;;1.73;1.45;;;10.00;99.90;;;;;;4178862;28;20045;-84
2022/05/13 00:59:55;;;;;;;2.85;1.20;;;9.90;99.90;;;;;;4178296;28;20063;-84
2022/05/13 01:01:57;;;;;;;3.10;1.27;;;9.70;99.90;;;;;;4161824;28;20553;-85
2022/05/13 01:04:06;;;;;;;2.25;1.80;;;9.90;99.90;;;;;;4161649;28;20045;-85
2022/05/13 01:06:13;;;;;;;3.05;1.40;;;9.80;99.90;;;;;;4161491;28;20057;-85
2022/05/13 01:08:15;;;;;;;2.58;1.30;;;9.60;99.90;;;;;;4174788;28;20037;-85
2022/05/13 01:10:21;;;;;;;4.03;1.85;;;9.70;99.90;;;;;;4178143;28;20051;-86
2022/05/13 01:12:32;;;;;;;1.25;1.25;;;9.50;99.90;;;;;;4178072;28;20053;-85
2022/05/13 01:14:42;;;;;;;2.65;1.35;;;9.50;99.90;;;;;;4152209;28;20412;-85
2022/05/13 01:19:05;;;;;;;1.60;1.50;;;9.80;99.90;;;;;;4162827;28;20402;-85
2022/05/13 01:21:11;;;;;;;2.58;2.00;;;9.70;99.90;;;;;;4162582;28;20055;-86
2022/05/13 01:23:20;;;;;;;2.88;1.20;;;9.70;99.90;;;;;;4162542;28;20041;-86
2022/05/13 01:25:26;;;;;;;4.03;2.05;;;9.70;99.90;;;;;;4145437;28;20098;-85
2022/05/13 01:27:28;;;;;;;5.38;1.90;;;9.80;99.90;;;;;;4153120;28;20043;-85
2022/05/13 01:29:30;;;;;;;1.50;1.33;;;9.50;99.90;;;;;;4178702;28;20124;-85
2022/05/13 01:31:37;;;;;;;1.67;1.35;;;9.50;99.90;;;;;;4177754;28;20068;-85
2022/05/13 01:33:40;;;;;;;1.30;1.30;;;9.40;99.90;;;;;;4177756;28;20053;-86
2022/05/13 01:35:46;;;;;;;1.40;1.30;;;9.30;99.90;;;;;;4176933;28;20044;-86
2022/05/13 01:37:49;;;;;;;1.40;1.38;;;9.30;99.90;;;;;;4163418;28;20648;-85
2022/05/13 01:39:51;;;;;;;3.53;1.58;;;9.30;99.90;;;;;;4167097;28;20063;-85
2022/05/13 01:41:55;;;;;;;1.30;1.20;;;9.30;99.90;;;;;;4177542;28;20049;-85
2022/05/13 01:43:58;;;;;;;4.88;1.45;;;9.30;99.90;;;;;;4178159;28;20049;-86
2022/05/13 01:46:00;;;;;;;1.70;1.15;;;9.10;99.90;;;;;;4194506;28;20127;-86
2022/05/13 01:48:03;;;;;;;3.63;1.30;;;9.00;99.90;;;;;;4193846;28;20052;-85
2022/05/13 01:50:07;;;;;;;1.17;1.15;;;9.10;99.90;;;;;;4194903;28;20047;-85
2022/05/13 01:52:10;;;;;;;1.50;1.40;;;9.10;99.90;;;;;;4177612;28;20053;-85
2022/05/13 01:54:12;;;;;;;2.75;1.15;;;9.20;99.90;;;;;;4193941;28;20056;-85
2022/05/13 01:56:15;;;;;;;1.50;1.40;;;9.30;99.90;;;;;;4195040;28;20108;-86
2022/05/13 01:58:20;;;;;;;1.42;1.42;;;9.30;99.90;;;;;;4194023;28;20131;-85
2022/05/13 02:00:23;;;;;;;1.75;1.23;;;9.20;99.90;;;;;;4194859;28;20423;-86
2022/05/13 02:02:25;;;;;;;5.30;2.15;;;9.20;99.90;;;;;;4193461;28;20037;-86
2022/05/13 02:04:28;;;;;;;6.90;1.20;;;9.30;99.90;;;;;;4177182;28;20059;-85
2022/05/13 02:06:31;;;;;;;1.55;1.38;;;9.30;99.90;;;;;;4177003;28;20037;-86
2022/05/13 02:08:34;;;;;;;1.58;1.48;;;9.10;99.90;;;;;;4177605;28;20083;-85
2022/05/13 02:10:37;;;;;;;1.77;1.70;;;8.80;99.90;;;;;;4160653;28;20053;-85
2022/05/13 02:12:40;;;;;;;1.27;1.13;;;8.80;99.90;;;;;;4178898;28;20048;-85
2022/05/13 02:14:42;;;;;;;4.05;1.95;;;8.80;99.90;;;;;;4181431;28;20049;-85
2022/05/13 02:16:44;;;;;;;4.38;1.88;;;8.80;99.90;;;;;;4193834;28;20043;-86
2022/05/13 02:18:47;;;;;;;;;;;8.50;99.90;;;;;;4194905;28;20052;-85
2022/05/13 02:20:49;;;;;;;2.67;2.00;;;8.50;99.90;;;;;;4194459;28;19932;-85
2022/05/13 02:22:52;;;;;;;2.72;1.55;;;8.50;99.90;;;;;;4194485;28;20049;-86
2022/05/13 02:24:55;;;;;;;5.25;1.50;;;8.60;99.90;;;;;;4194395;28;20044;-85
2022/05/13 02:26:57;;;;;;;4.38;1.95;;;8.50;99.90;;;;;;4193876;28;20074;-85
2022/05/13 02:29:01;;;;;;;5.10;1.92;;;8.60;99.90;;;;;;4193391;28;20075;-85
2022/05/13 02:31:05;;;;;;;1.70;1.58;;;8.80;99.90;;;;;;4194545;28;20090;-85
2022/05/13 02:33:07;;;;;;;1.35;1.20;;;8.80;99.90;;;;;;4193470;28;20596;-86
2022/05/13 02:35:11;;;;;;;1.40;1.30;;;8.80;99.90;;;;;;4194936;28;20052;-85
2022/05/13 02:37:13;;;;;;;1.45;1.35;;;8.80;99.90;;;;;;4176739;28;20044;-85
2022/05/13 02:39:15;;;;;;;;;;;8.80;99.90;;;;;;4194245;28;20059;-85
2022/05/13 02:41:19;;;;;;;1.85;1.40;;;8.70;99.90;;;;;;4164740;28;19928;-85
2022/05/13 02:43:21;;;;;;;2.25;1.20;;;8.40;99.90;;;;;;4180418;28;20111;-85
2022/05/13 02:45:23;;;;;;;2.80;1.23;;;8.40;99.90;;;;;;4176461;28;20053;-85
2022/05/13 02:47:25;;;;;;;2.40;1.52;;;8.40;99.90;;;;;;4178352;28;20053;-85
2022/05/13 02:49:28;;;;;;;2.88;1.58;;;8.50;99.90;;;;;;4197829;28;20048;-86
2022/05/13 02:51:30;;;;;;;1.45;1.45;;;8.40;99.90;;;;;;4197678;28;20049;-86
2022/05/13 02:53:32;;;;;;;3.28;1.60;;;8.40;99.90;;;;;;4180416;28;20592;-85
2022/05/13 02:55:34;;;;;;;1.77;1.67;;;8.30;99.90;;;;;;4180430;28;20071;-86
2022/05/13 02:57:36;;;;;;;2.00;1.40;;;8.20;99.90;;;;;;4196699;28;20080;-85
2022/05/13 02:59:39;;;;;;;2.50;1.40;;;8.20;99.90;;;;;;4197609;28;20037;-85
2022/05/13 03:01:41;;;;;;;1.98;1.70;;;8.10;99.90;;;;;;4197465;28;20070;-85
2022/05/13 03:03:46;;;;;;;3.45;1.38;;;7.90;99.90;;;;;;4179883;28;20057;-85
2022/05/13 03:05:48;;;;;;;1.67;1.58;;;8.00;99.90;;;;;;4176550;28;20073;-85
2022/05/13 03:07:51;;;;;;;3.35;1.40;;;8.00;99.90;;;;;;4187564;28;20049;-85
2022/05/13 03:09:53;;;;;;;2.72;2.13;;;8.00;99.90;;;;;;4185948;28;20044;-85
2022/05/13 03:11:56;;;;;;;1.80;1.70;;;8.00;99.90;;;;;;4179968;28;20053;-85
2022/05/13 03:13:59;;;;;;;1.60;1.40;;;7.80;99.90;;;;;;4179872;28;20508;-85
2022/05/13 03:16:06;;;;;;;1.00;1.00;;;7.80;99.90;;;;;;4179875;28;20060;-86
2022/05/13 03:18:10;;;;;;;3.60;1.40;;;7.80;99.90;;;;;;4187506;28;20053;-85
2022/05/13 03:20:15;;;;;;;2.63;1.75;;;7.70;99.90;;;;;;4179486;28;20041;-86
2022/05/13 03:22:22;;;;;;;2.13;1.90;;;7.60;99.90;;;;;;4188466;28;20467;-86
2022/05/13 03:24:25;;;;;;;2.08;1.85;;;7.80;99.90;;;;;;4179895;28;20057;-86
2022/05/13 03:26:27;;;;;;;4.68;2.15;;;7.80;99.90;;;;;;4196009;28;20052;-85
2022/05/13 03:28:30;;;;;;;5.25;2.20;;;7.90;99.90;;;;;;4196165;28;20120;-85
2022/05/13 03:30:33;;;;;;;1.90;1.27;;;7.80;99.90;;;;;;4179760;28;20048;-86
2022/05/13 03:32:35;;;;;;;1.80;1.67;;;7.90;99.90;;;;;;4208246;28;20051;-85
2022/05/13 03:34:38;;;;;;;3.55;1.90;;;7.90;99.90;;;;;;4197202;28;20095;-85
2022/05/13 03:36:40;;;;;;;2.70;2.13;;;7.90;99.90;;;;;;4197171;28;20135;-85
2022/05/13 03:38:42;;;;;;;1.77;1.67;;;7.80;99.90;;;;;;4179665;28;20120;-86
2022/05/13 03:40:47;;;;;;;1.83;1.73;;;7.90;99.90;;;;;;4195664;28;20447;-85
2022/05/13 03:42:49;;;;;;;4.50;1.95;;;7.70;99.90;;;;;;4179886;28;20052;-86
2022/05/13 03:44:51;;;;;;;;;;;7.60;99.90;;;;;;4183442;28;20140;-85
2022/05/13 03:46:53;;;;;;;1.65;1.60;;;7.50;99.90;;;;;;4179346;28;20398;-86
2022/05/13 03:48:56;;;;;;;3.63;2.13;;;7.40;99.90;;;;;;4179550;28;20048;-86
2022/05/13 03:50:59;;;;;;;4.35;2.55;;;7.40;99.90;;;;;;4180071;28;20033;-85
2022/05/13 03:53:02;;;;;;;3.35;2.25;;;7.30;99.90;;;;;;4162848;28;20057;-85
2022/05/13 03:55:06;;;;;;;1.73;1.40;;;7.50;99.90;;;;;;4180293;28;20063;-86
2022/05/13 03:57:08;;;;;;;1.98;1.77;;;7.50;99.90;;;;;;4179105;28;20493;-85
2022/05/13 03:59:10;;;;;;;2.03;2.00;;;7.50;99.90;;;;;;4179357;28;20053;-85
2022/05/13 04:01:13;;;;;;;2.15;1.33;;;7.50;99.90;;;;;;4165851;28;20113;-86
2022/05/13 04:03:19;;;;;;;1.75;1.65;;;7.50;99.90;;;;;;4167875;28;20051;-85
2022/05/13 04:10:06;;;;;;;1.95;1.30;;;7.60;99.90;;;;;;4180160;28;20045;-86
2022/05/13 04:16:55;;;;;;;2.72;2.42;;;7.40;99.90;;;;;;4174547;28;20049;-85
2022/05/13 04:18:58;;;;;;;3.13;2.03;;;7.40;99.90;;;;;;4165916;28;20378;-86
2022/05/13 04:21:04;;;;;;;1.85;1.60;;;7.40;99.90;;;;;;4164240;28;20049;-85
2022/05/13 04:23:06;;;;;;;1.65;1.55;;;7.40;99.90;;;;;;4181183;28;20045;-85
2022/05/13 04:25:08;;;;;;;5.65;1.85;;;7.40;99.90;;;;;;4178092;28;20056;-85
2022/05/13 04:27:12;;;;;;;1.67;1.58;;;7.30;99.90;;;;;;4181774;28;20044;-85
2022/05/13 04:29:15;;;;;;;4.75;1.60;;;7.30;99.90;;;;;;4165134;28;20049;-85
2022/05/13 04:31:24;;;;;;;2.45;2.35;;;7.30;99.90;;;;;;4147109;28;20054;-85
2022/05/13 04:33:27;;;;;;;2.00;1.90;;;7.40;99.90;;;;;;4165515;28;20081;-85
2022/05/13 04:35:30;;;;;;;2.13;1.83;;;7.50;99.90;;;;;;4169718;28;20094;-85
2022/05/13 04:37:32;;;;;;;2.25;2.08;;;7.60;99.90;;;;;;4178365;28;20080;-85
2022/05/13 04:39:34;;;;;;;2.80;2.38;;;7.50;99.90;;;;;;4163083;28;20053;-85
2022/05/13 04:43:57;;;;;;;3.22;2.10;;;7.50;99.90;;;;;;4180309;28;20045;-85
2022/05/13 04:45:59;;;;;;;1.70;1.70;;;7.60;99.90;;;;;;4195273;28;20055;-85
2022/05/13 04:48:16;;;;;;;1.90;1.80;;;7.50;99.90;;;;;;4195864;28;20048;-85
2022/05/13 04:50:21;;;;;;;3.95;2.50;;;7.40;99.90;;;;;;4195937;28;20472;-85
2022/05/13 04:52:24;;;;;;;1.83;1.83;;;7.40;99.90;;;;;;4196395;28;20070;-85
2022/05/13 04:54:26;;;;;;;2.50;2.20;;;7.30;99.90;;;;;;4190430;28;20464;-85
2022/05/13 04:56:29;;;;;;;1.92;1.83;;;7.30;99.90;;;;;;4162119;28;20061;-85
2022/05/13 04:58:32;;;;;;;1.95;1.85;;;7.40;99.90;;;;;;4162765;28;20116;-85
2022/05/13 05:00:35;;;;;;;3.63;1.52;;;7.60;99.90;;;;;;4178865;28;20506;-85
2022/05/13 05:02:38;;;;;;;2.35;2.15;;;7.70;99.90;;;;;;4196079;28;20049;-86
2022/05/13 05:04:40;;;;;;;3.50;1.75;;;7.60;99.90;;;;;;4195792;28;20048;-85
2022/05/13 05:06:43;;;;;;;2.30;1.52;;;7.70;99.90;;;;;;4195160;28;20044;-86
2022/05/13 05:08:47;;;;;;;2.08;1.90;;;7.70;99.90;;;;;;4196510;28;20060;-85
2022/05/13 05:10:49;;;;;;;5.30;1.63;;;7.80;99.90;;;;;;4178401;28;20073;-86
2022/05/13 05:12:56;;;;;;;4.68;2.85;;;7.90;99.90;;;;;;4178757;28;20107;-85
2022/05/13 05:14:59;;;;;;;2.10;2.00;;;7.90;99.90;;;;;;4195850;28;20059;-85
2022/05/13 05:17:01;;;;;;;5.72;1.90;;;7.90;99.90;;;;;;4195164;28;20056;-85
2022/05/13 05:19:04;;;;;;;;;;;7.90;99.90;;;;;;4196443;28;20083;-86
2022/05/13 05:21:08;;;;;;;2.72;2.05;;;7.90;99.90;;;;;;4196290;28;19935;-85
2022/05/13 05:23:24;;;;;;;2.25;2.15;;;8.00;99.90;;;;;;4189132;28;20120;-86
2022/05/13 05:25:29;;;;;;;1.50;1.45;;;8.10;99.90;;;;;;4161606;28;20105;-84
2022/05/13 05:27:35;;;;;;;2.08;1.98;;;8.10;99.90;;;;;;4192636;28;20044;-83
2022/05/13 05:29:37;;;;;;;3.58;2.55;;;8.10;99.90;;;;;;4195163;28;20480;-83
2022/05/13 05:31:39;;;;;;;7.90;2.55;;;8.30;99.90;;;;;;4177621;28;20041;-84
2022/05/13 05:33:42;;;;;;;1.45;1.35;;;8.60;99.90;;;;;;4194713;28;20421;-84
2022/05/13 05:35:45;;;;;;;5.55;2.22;;;8.50;99.90;;;;;;4193276;28;20052;-84
2022/05/13 05:37:48;;;;;;;5.13;2.05;;;8.50;99.90;;;;;;4177469;28;20053;-84
2022/05/13 05:39:50;;;;;;;2.22;2.00;;;8.50;99.90;;;;;;4178439;28;20566;-83
2022/05/13 05:41:52;;;;;;;1.65;1.55;;;8.50;99.90;;;;;;4180233;28;20061;-84
2022/05/13 05:43:55;;;;;;;1.60;1.60;;;8.80;99.90;;;;;;4176868;28;20159;-83
2022/05/13 05:45:59;;;;;;;1.70;1.48;;;8.80;99.90;;;;;;4194349;28;20049;-84
2022/05/13 05:48:01;;;;;;;1.52;1.52;;;8.90;99.90;;;;;;4194687;28;20102;-84
2022/05/13 05:50:07;;;;;;;2.65;1.77;;;8.80;99.90;;;;;;4176997;28;20049;-84
2022/05/13 05:52:10;;;;;;;2.20;2.00;;;9.10;99.90;;;;;;4178032;28;20053;-84
2022/05/13 05:58:54;;;;;;;2.83;1.98;;;9.60;99.90;;;;;;4194620;28;20045;-84
2022/05/13 06:00:56;;;;;;;3.83;1.48;;;9.70;99.90;;;;;;4175591;28;20139;-84
2022/05/13 06:03:00;;;;;;;6.95;1.63;;;9.70;99.90;;;;;;4176903;28;20697;-84
2022/05/13 06:05:02;;;;;;;3.60;2.13;;;9.80;99.90;;;;;;4186669;28;20488;-84
2022/05/13 06:07:10;;;;;;;2.85;1.45;;;9.90;99.90;;;;;;4194640;28;20050;-83
2022/05/13 06:09:12;;;;;;;7.75;1.67;;;10.10;99.90;;;;;;4177723;28;20444;-84
2022/05/13 06:11:15;;;;;;;2.88;1.52;;;10.20;99.90;;;;;;4167452;28;20045;-85
2022/05/13 06:13:17;;;;;;;1.08;1.08;;;10.30;99.90;;;;;;4177100;28;20158;-85
2022/05/13 06:15:20;;;;;;;2.15;1.40;;;10.50;99.90;;;;;;4176815;28;20055;-85
2022/05/13 06:17:23;;;;;;;5.63;1.23;;;10.60;99.90;;;;;;4194440;28;20093;-85
2022/05/13 06:19:26;;;;;;;6.28;1.60;;;10.70;99.90;;;;;;4194352;28;20049;-85
2022/05/13 06:21:31;;;;;;;1.83;1.30;;;10.90;99.90;;;;;;4180175;28;20566;-85
2022/05/13 06:23:35;;;;;;;4.95;1.08;;;11.00;99.90;;;;;;4181198;28;20040;-86
2022/05/13 06:25:38;;;;;;;2.30;1.30;;;11.20;99.90;;;;;;4194654;28;20516;-85
2022/05/13 06:27:40;;;;;;;2.65;1.23;;;11.40;99.90;;;;;;4193236;28;20054;-85
2022/05/13 06:29:43;;;;;;;3.15;1.10;;;11.50;99.90;;;;;;4176531;28;20080;-85
2022/05/13 06:31:46;;;;;;;7.03;1.25;;;11.60;99.90;;;;;;4194552;28;20048;-86
2022/05/13 06:33:49;;;;;;;6.68;1.77;;;11.80;99.90;;;;;;4176916;28;20815;-85
2022/05/13 06:35:52;;;;;;;3.72;1.30;;;11.90;99.90;;;;;;4177106;28;20563;-85
2022/05/13 06:37:55;;;;;;;2.35;1.20;;;12.10;99.90;;;;;;4176861;28;20057;-85
2022/05/13 06:39:59;;;;;;;2.63;0.98;;;12.50;99.90;;;;;;4185220;28;20048;-85
2022/05/13 06:42:01;;;;;;;2.53;1.38;;;12.80;99.90;;;;;;4176921;28;20048;-85
2022/05/13 06:44:08;;;;;;;2.70;1.25;;;13.10;99.90;;;;;;4194297;28;20087;-85
2022/05/13 06:46:10;;;;;;;4.50;1.08;;;13.70;99.90;;;;;;4176561;28;20079;-86
2022/05/13 06:48:19;;;;;;;1.33;1.23;;;13.90;99.90;;;;;;4194464;28;20048;-86
2022/05/13 06:50:21;;;;;;;0.88;0.88;;;13.70;99.90;;;;;;4179160;28;20115;-85
2022/05/13 06:52:23;;;;;;;4.30;1.00;;;13.70;99.90;;;;;;4193211;28;20040;-86
2022/05/13 06:54:43;;;;;;;1.58;0.80;;;13.70;99.90;;;;;;4191272;28;20045;-85
2022/05/13 06:56:47;;;;;;;5.18;1.02;;;13.80;99.90;;;;;;4160204;28;20057;-86
2022/05/13 06:58:49;;;;;;;1.00;0.90;;;13.80;99.90;;;;;;4176542;28;20460;-85
2022/05/13 07:01:14;;;;;;;2.10;1.33;;;13.80;99.90;;;;;;4176389;28;20048;-86
2022/05/13 07:03:18;;;;;;;6.90;1.42;;;13.90;99.90;;;;;;4125738;28;20134;-86
2022/05/13 07:05:23;;;;;;;3.22;1.10;;;14.00;99.90;;;;;;4126711;28;20045;-86
2022/05/13 07:07:28;;;;;;;1.13;1.00;;;14.00;99.90;;;;;;4110761;28;20055;-86
2022/05/13 07:09:30;;;;;;;4.65;1.10;;;14.30;99.90;;;;;;4110308;28;20472;-85
2022/05/13 07:11:33;;;;;;;2.17;0.90;;;14.80;99.90;;;;;;4126482;28;20046;-86
2022/05/13 07:13:35;;;;;;;;;;;15.20;99.90;;;;;;4110945;28;20059;-86
2022/05/13 07:15:39;;;;;;;0.98;0.98;;;15.30;99.90;;;;;;4110811;28;19929;-86
2022/05/13 07:17:42;;;;;;;3.22;0.90;;;15.30;99.90;;;;;;4125931;28;20042;-85
2022/05/13 07:19:44;;;;;;;3.13;1.17;;;15.60;99.90;;;;;;4125944;28;20058;-85
2022/05/13 07:21:46;;;;;;;2.53;1.02;;;15.60;99.90;;;;;;4126265;28;20073;-85
2022/05/13 07:23:48;;;;;;;1.10;1.00;;;15.70;99.90;;;;;;4126050;28;20038;-85
2022/05/13 07:25:50;;;;;;;6.82;1.00;;;15.90;99.90;;;;;;4125880;28;20802;-85
2022/05/13 07:27:53;;;;;;;1.23;1.20;;;15.70;99.90;;;;;;4109698;28;20063;-85
2022/05/13 07:29:55;;;;;;;;;;;16.10;99.90;;;;;;4110347;28;20042;-85
2022/05/13 07:32:02;;;;;;;2.03;1.00;;;16.30;99.90;;;;;;4125525;28;20013;-85
2022/05/13 07:34:07;;;;;;;0.90;0.90;;;16.70;99.90;;;;;;4128454;28;20054;-85
2022/05/13 07:36:09;;;;;;;3.35;1.40;;;17.10;99.90;;;;;;4129556;28;20487;-86
2022/05/13 07:38:11;;;;;;;3.28;1.15;;;17.20;99.90;;;;;;4129372;28;20142;-85
2022/05/13 07:42:34;;;;;;;1.45;0.80;;;17.10;99.90;;;;;;4180495;28;20081;-86
2022/05/13 07:44:37;;;;;;;5.97;0.95;;;17.10;99.90;;;;;;4176703;28;20533;-86
2022/05/13 07:46:39;;;;;;;1.63;1.02;;;17.50;99.90;;;;;;4195691;28;20044;-85
2022/05/13 07:48:42;;;;;;;4.00;0.80;;;17.80;99.90;;;;;;4195748;28;20059;-85
2022/05/13 07:50:44;;;;;;;0.82;0.82;;;18.00;99.90;;;;;;4183271;28;20049;-86
2022/05/13 07:52:46;;;;;;;1.55;0.80;;;18.30;99.90;;;;;;4193231;28;20544;-85
2022/05/13 07:54:50;;;;;;;2.28;0.75;;;18.40;99.90;;;;;;4196921;28;20064;-86
2022/05/13 07:56:53;;;;;;;0.93;0.70;;;18.30;99.90;;;;;;4179193;28;20097;-86
2022/05/13 07:58:57;;;;;;;1.65;0.70;;;18.40;99.90;;;;;;4181184;28;20455;-86
2022/05/13 08:01:00;;;;;;;3.60;1.40;;;18.30;99.90;;;;;;4196708;28;20059;-86
2022/05/13 08:03:10;;;;;;;2.72;1.30;;;18.30;99.90;;;;;;4196606;28;20060;-86
2022/05/13 08:05:13;;;;;;;1.38;0.70;;;18.50;99.90;;;;;;4196113;28;20051;-86
2022/05/13 08:07:15;;;;;;;1.10;1.00;;;18.70;99.90;;;;;;4182918;28;20477;-86
2022/05/13 08:09:18;;;;;;;2.20;0.80;;;19.00;99.90;;;;;;4178919;28;20053;-86
2022/05/13 08:11:20;;;;;;;5.05;1.02;;;19.30;99.90;;;;;;4190972;28;20049;-86
2022/05/13 08:13:23;;;;;;;1.58;0.93;;;19.50;99.90;;;;;;4195136;28;20378;-86
2022/05/13 08:15:26;;;;;;;1.15;0.70;;;19.30;99.90;;;;;;4196739;28;20477;-86
2022/05/13 08:17:31;;;;;;;;;;;19.40;99.90;;;;;;4192475;28;20049;-86
2022/05/13 08:19:33;;;;;;;2.25;0.70;;;19.40;99.90;;;;;;4195317;28;19921;-86
2022/05/13 08:21:37;;;;;;;;;;;19.70;99.90;;;;;;4186114;28;20048;-86
2022/05/13 08:23:40;;;;;;;0.70;0.70;;;20.00;99.90;;;;;;4195604;28;19920;-85
2022/05/13 08:25:44;;;;;;;1.23;0.73;;;20.40;99.90;;;;;;4178748;28;20637;-86
2022/05/13 08:27:47;;;;;;;1.35;0.60;;;20.40;99.40;;;;;;4181596;28;20061;-86
2022/05/13 08:29:49;;;;;;;0.60;0.60;;;20.50;99.90;;;;;;4195168;28;20464;-86
2022/05/13 08:31:52;;;;;;;0.65;0.60;;;20.60;98.80;;;;;;4178794;28;20049;-86
2022/05/13 08:33:55;;;;;;;2.10;0.60;;;20.70;99.90;;;;;;4196126;28;20066;-86
2022/05/13 08:36:00;;;;;;;4.15;0.60;;;20.70;98.90;;;;;;4196747;28;20135;-86
2022/05/13 08:38:03;;;;;;;2.80;0.60;;;20.40;98.60;;;;;;4196215;28;20087;-86
2022/05/13 08:40:06;;;;;;;3.83;0.70;;;20.70;97.60;;;;;;4196197;28;20045;-86
2022/05/13 08:42:35;;;;;;;1.55;0.70;;;21.10;99.20;;;;;;4178524;28;20170;-86
2022/05/13 08:44:38;;;;;;;1.08;0.60;;;21.10;97.70;;;;;;4195113;28;20156;-86
2022/05/13 08:47:41;;;;;;;0.77;0.70;;;21.00;96.90;;;;;;4196131;28;20041;-86
2022/05/13 08:49:49;;;;;;;2.55;0.60;;;21.10;97.30;;;;;;4177272;28;20053;-86
2022/05/13 08:54:37;;;;;;;0.60;0.60;;;21.30;98.00;;;;;;4177560;28;20075;-86
2022/05/13 08:56:39;;;;;;;0.60;0.60;;;21.40;98.10;;;;;;4177537;28;20048;-86
2022/05/13 08:58:45;;;;;;;1.23;0.65;;;21.20;95.80;;;;;;4177280;28;20468;-86
2022/05/13 09:00:53;;;;;;;1.85;0.60;;;21.40;96.70;;;;;;4177296;28;20487;-86
2022/05/13 09:03:03;;;;;;;0.63;0.60;;;21.40;95.80;;;;;;4177510;28;20156;-86
2022/05/13 09:05:37;;;;;;;3.35;0.50;;;21.60;95.00;;;;;;4178233;28;20041;-86
2022/05/13 09:07:39;;;;;;;1.83;0.80;;;22.00;95.80;;;;;;4180001;28;20493;-86
2022/05/13 09:09:45;;;;;;;0.55;0.55;;;22.00;97.30;;;;;;4178876;28;20067;-86
2022/05/13 09:11:52;;;;;;;3.80;0.93;;;22.00;95.40;;;;;;4171581;28;20068;-86
2022/05/13 09:14:08;;;;;;;1.73;0.60;;;22.30;96.90;;;;;;4163515;28;20602;-86
2022/05/13 09:16:10;;;;;;;1.10;0.50;;;22.80;96.90;;;;;;4162453;28;20543;-86
2022/05/13 09:18:19;;;;;;;0.73;0.50;;;22.50;96.30;;;;;;4170997;28;20540;-86
2022/05/13 09:20:24;;;;;;;1.05;0.50;;;22.50;95.00;;;;;;4183898;28;20053;-86
2022/05/13 09:22:40;;;;;;;1.00;0.50;;;22.50;95.70;;;;;;4179595;28;20081;-86
2022/05/13 09:24:44;;;;;;;1.48;0.80;;;22.60;95.70;;;;;;4195561;28;20520;-86
2022/05/13 09:27:06;;;;;;;0.65;0.60;;;22.30;94.00;;;;;;4196471;28;20059;-86
2022/05/13 09:29:18;;;;;;;0.95;0.50;;;22.50;94.90;;;;;;4194976;28;20068;-86
2022/05/13 09:31:21;;;;;;;3.90;0.60;;;22.40;95.80;;;;;;4194465;28;20500;-85
2022/05/13 09:33:46;;;;;;;1.77;0.60;;;22.40;94.60;;;;;;4193884;28;20059;-86
2022/05/13 09:35:52;;;;;;;1.95;0.50;;;22.40;96.80;;;;;;4192949;28;20419;-86
2022/05/13 09:37:55;;;;;;;1.65;0.63;;;22.80;94.40;;;;;;4172780;28;20436;-86
2022/05/13 09:40:17;;;;;;;0.95;0.50;;;22.70;93.50;;;;;;4177762;28;20467;-85
2022/05/13 09:42:33;;;;;;;1.35;0.60;;;22.40;93.00;;;;;;4180417;28;20119;-85
2022/05/13 09:44:36;;;;;;;4.65;0.70;;;22.60;93.20;;;;;;4177408;28;20048;-87
2022/05/13 09:46:40;;;;;;;1.65;0.60;;;22.40;91.30;;;;;;4159994;28;20099;-85
2022/05/13 09:49:01;;;;;;;0.50;0.50;;;22.60;91.60;;;;;;4176655;28;20048;-86
2022/05/13 09:51:23;;;;;;;1.08;0.50;;;22.80;93.00;;;;;;4180190;28;20036;-85
2022/05/13 09:53:30;;;;;;;0.50;0.50;;;22.40;92.20;;;;;;4178515;28;20119;-85
2022/05/13 09:55:39;;;;;;;0.70;0.65;;;22.50;91.80;;;;;;4191237;28;20119;-85
2022/05/13 09:57:42;;;;;;;1.35;0.50;;;22.60;92.60;;;;;;4176146;28;20132;-85
2022/05/13 09:59:55;;;;;;;1.75;0.50;;;22.70;92.80;;;;;;4193684;28;20045;-85
2022/05/13 10:02:32;;;;;;;1.83;0.60;;;23.10;92.50;;;;;;4177018;28;20099;-85
2022/05/13 10:04:35;;;;;;;1.85;0.50;;;23.20;92.60;;;;;;4175179;28;20041;-85
2022/05/13 10:06:40;;;;;;;3.17;0.50;;;23.50;90.80;;;;;;4175353;28;20404;-86
2022/05/13 10:13:57;;;;;;;1.08;0.50;;;23.60;91.60;;;;;;4176369;28;20064;-85
2022/05/13 10:13:59;;;;;;;0.40;0.40;;;23.70;91.80;;;;;;4191012;28;20040;-85
2022/05/13 10:16:02;;;;;;;1.33;0.50;;;23.60;90.70;;;;;;4186358;28;20041;-85
2022/05/13 10:18:16;;;;;;;0.60;0.43;;;24.00;93.20;;;;;;4188614;28;20128;-86
2022/05/13 10:20:39;;;;;;;1.25;0.88;;;23.80;88.70;;;;;;4193076;28;20071;-85
2022/05/13 10:22:46;;;;;;;1.00;0.50;;;23.50;91.00;;;;;;4160510;28;20040;-85
2022/05/13 10:25:05;;;;;;;3.80;0.52;;;23.30;90.10;;;;;;4189243;28;20535;-85
2022/05/13 10:27:16;;;;;;;1.45;0.70;;;23.60;91.00;;;;;;4177315;28;20739;-86
2022/05/13 10:29:39;;;;;;;1.95;0.47;;;24.20;91.30;;;;;;4194174;28;20119;-85
2022/05/13 10:31:42;;;;;;;;;;;24.80;90.20;;;;;;4170011;28;20032;-85
2022/05/13 10:34:28;;;;;;;1.98;0.40;;;25.00;85.90;;;;;;4178857;28;20354;-85
2022/05/13 10:36:40;;;;;;;1.50;0.50;;;24.30;83.90;;;;;;4177891;28;20033;-85
2022/05/13 10:39:04;;;;;;;0.50;0.50;;;24.60;90.20;;;;;;4173187;28;20098;-86
2022/05/13 10:41:23;;;;;;;0.47;0.45;;;25.00;90.30;;;;;;4198108;28;20111;-86
2022/05/13 10:43:54;;;;;;;1.50;0.40;;;25.10;86.40;;;;;;4189885;28;20552;-85
2022/05/13 10:46:24;;;;;;;0.95;0.47;;;25.70;89.30;;;;;;4176854;28;20572;-86
2022/05/13 10:48:30;;;;;;;2.13;0.50;;;25.80;88.80;;;;;;4191045;28;20036;-85
2022/05/13 10:50:41;;;;;;;1.30;0.60;;;26.00;89.10;;;;;;4187555;28;20047;-86
2022/05/13 10:53:05;;;;;;;0.85;0.40;;;26.10;84.10;;;;;;4174739;28;20071;-85
2022/05/13 10:55:21;;;;;;;1.17;0.50;;;26.00;83.80;;;;;;4155959;28;20142;-86
2022/05/13 10:57:44;;;;;;;2.38;0.40;;;26.10;87.20;;;;;;4188338;28;20036;-86
2022/05/13 11:00:14;;;;;;;0.50;0.40;;;26.70;87.80;;;;;;4175238;28;20033;-85
2022/05/13 11:02:30;;;;;;;3.45;0.50;;;27.00;80.30;;;;;;4183509;28;20041;-86
2022/05/13 11:05:04;;;;;;;1.35;0.40;;;26.30;80.60;;;;;;4159352;28;20034;-86
2022/05/13 11:07:29;;;;;;;1.15;0.40;;;26.00;78.90;;;;;;4186153;28;20045;-85
2022/05/13 11:09:46;;;;;;;1.27;0.40;;;26.10;81.40;;;;;;4160506;28;20041;-86
2022/05/13 11:11:51;;;;;;;0.73;0.40;;;26.00;72.90;;;;;;4192230;28;20038;-86
2022/05/13 11:13:56;;;;;;;1.08;0.40;;;25.70;79.20;;;;;;4194475;28;20470;-86
2022/05/13 11:16:15;;;;;;;1.02;0.40;;;26.20;86.50;;;;;;4184036;28;20040;-86
2022/05/13 11:18:42;;;;;;;0.70;0.40;;;26.70;79.60;;;;;;4179275;28;20041;-85
2022/05/13 11:21:25;;;;;;;0.50;0.40;;;26.40;76.50;;;;;;4162927;28;20096;-85
2022/05/13 11:26:30;;;;;;;3.20;0.40;;;26.70;79.50;;;;;;4179028;28;20099;-86
2022/05/13 11:28:45;;;;;;;1.55;0.30;;;26.30;75.90;;;;;;4179458;28;20049;-86
2022/05/13 11:30:54;;;;;;;8.27;0.40;;;26.90;81.10;;;;;;4179570;28;20099;-86
2022/05/13 11:33:18;;;;;;;0.30;0.30;;;27.50;76.60;;;;;;4197067;28;20041;-87
2022/05/13 11:35:32;;;;;;;1.85;0.30;;;27.50;75.60;;;;;;4173271;28;20133;-86